createdAt,value
2022-10-19T04:01:51.839Z,100949.81
2022-10-19T04:06:01.935Z,100953.50
2022-10-19T04:10:05.164Z,100944.88
2022-10-19T04:18:17.027Z,100947.69
2022-10-19T04:22:19.650Z,100944.88
2022-10-19T04:26:22.314Z,100953.69
2022-10-19T04:30:24.894Z,100954.19
2022-10-19T04:34:28.884Z,100953.22
2022-10-19T04:38:31.529Z,100954.56
2022-10-19T04:42:34.163Z,100954.59
2022-10-19T04:46:37.375Z,100950.25
2022-10-19T04:50:41.722Z,100958.00
2022-10-19T04:54:44.317Z,100950.75
2022-10-19T04:58:47.704Z,100952.31
2022-10-19T05:02:50.313Z,100954.50
2022-10-19T05:06:54.278Z,100942.53
2022-10-19T05:11:02.027Z,100946.22
2022-10-19T05:15:05.246Z,100962.09
2022-10-19T05:19:07.859Z,100953.16
2022-10-19T05:23:11.877Z,100955.88
2022-10-19T05:27:14.461Z,100949.16
2022-10-19T05:31:18.325Z,100947.78
2022-10-19T05:35:22.674Z,100960.28
2022-10-19T05:39:27.583Z,100964.81
2022-10-19T05:43:30.155Z,100961.44
2022-10-19T05:47:33.534Z,100961.28
2022-10-19T05:51:36.151Z,100960.75
2022-10-19T05:55:40.087Z,100963.31
2022-10-19T05:59:42.697Z,100970.91
2022-10-19T06:03:45.539Z,100969.38
2022-10-19T06:07:48.138Z,100972.28
2022-10-19T06:11:52.055Z,100967.03
2022-10-19T06:15:54.658Z,100967.03
2022-10-19T06:19:57.249Z,100972.59
2022-10-19T06:24:02.240Z,100972.06
2022-10-19T06:28:06.442Z,100976.25
2022-10-19T06:32:09.021Z,100979.28
2022-10-19T06:36:14.073Z,100986.19
2022-10-19T06:40:16.755Z,100988.75
2022-10-19T06:44:21.009Z,100990.38
2022-10-19T06:48:24.096Z,100984.97
2022-10-19T06:52:26.691Z,100989.31
2022-10-19T06:56:29.331Z,100984.44
2022-10-19T07:00:33.318Z,100985.44
2022-10-19T07:04:35.943Z,100995.09
2022-10-19T07:08:40.493Z,101002.97
2022-10-19T07:12:43.091Z,101000.72
2022-10-19T07:16:47.043Z,101009.03
2022-10-19T07:20:55.351Z,101003.13
2022-10-19T07:24:58.285Z,101007.47
2022-10-19T07:29:01.187Z,101008.06
2022-10-19T07:33:06.655Z,101011.22
2022-10-19T07:37:09.332Z,101022.19
2022-10-19T07:41:13.798Z,101014.59
2022-10-19T07:45:16.473Z,101016.88
2022-10-19T07:49:20.698Z,101007.94
2022-10-19T07:53:23.934Z,101007.72
2022-10-19T07:57:26.574Z,101018.94
2022-10-19T08:01:30.931Z,101014.22
2022-10-19T08:05:35.439Z,101016.84
2022-10-19T08:09:52.636Z,101014.16
2022-10-19T08:13:58.515Z,101016.66
2022-10-19T08:18:01.730Z,101035.78
2022-10-19T08:22:05.662Z,101025.59
2022-10-19T08:26:08.519Z,101021.41
2022-10-19T08:30:12.422Z,101022.06
2022-10-19T08:34:16.440Z,101017.47
2022-10-19T08:38:20.463Z,101014.25
2022-10-19T08:42:29.406Z,101027.97
2022-10-19T08:46:43.063Z,101012.69
2022-10-19T08:50:46.735Z,101016.97
2022-10-19T08:54:54.467Z,101007.72
2022-10-19T08:59:13.726Z,100999.97
2022-10-19T09:03:32.088Z,101003.97
2022-10-19T09:07:47.570Z,101004.00
2022-10-19T09:12:05.204Z,101005.19
2022-10-19T09:16:12.919Z,100999.56
2022-10-19T09:20:18.896Z,101000.88
2022-10-19T09:24:29.883Z,100989.72
2022-10-19T09:28:46.384Z,100994.66
2022-10-19T09:32:50.823Z,100997.97
2022-10-19T09:36:56.081Z,101002.13
2022-10-19T09:40:59.764Z,101008.16
2022-10-19T09:45:17.336Z,100998.47
2022-10-19T09:49:38.481Z,101003.63
2022-10-19T09:53:46.227Z,101009.25
2022-10-19T09:57:50.432Z,101009.09
2022-10-19T10:02:17.500Z,101005.31
2022-10-19T10:06:22.358Z,101005.97
2022-10-19T10:10:30.566Z,101005.31
2022-10-19T10:14:35.887Z,101005.75
2022-10-19T10:18:52.581Z,101007.44
2022-10-19T10:22:58.500Z,101011.84
2022-10-19T10:27:03.011Z,101007.25
2022-10-19T10:31:08.733Z,101009.72
2022-10-19T10:35:19.751Z,101006.19
2022-10-19T10:39:24.729Z,101003.00
2022-10-19T10:43:32.025Z,101009.75
2022-10-19T10:47:35.115Z,100994.22
2022-10-19T10:51:49.198Z,100992.03
2022-10-19T10:55:57.481Z,100987.03
2022-10-19T11:00:07.634Z,100989.97
2022-10-19T11:04:14.987Z,100984.09
2022-10-19T11:08:27.293Z,100981.53
2022-10-19T11:12:36.960Z,100978.88
2022-10-19T11:16:43.052Z,100969.81
2022-10-19T11:20:53.394Z,100952.84
2022-10-19T11:25:19.311Z,100969.72
2022-10-19T11:29:39.027Z,100955.50
2022-10-19T11:33:51.627Z,100950.16
2022-10-19T11:38:24.145Z,100952.56
2022-10-19T11:42:42.379Z,100942.78
2022-10-19T11:46:54.787Z,100932.88
2022-10-19T11:51:17.272Z,100930.25
2022-10-19T11:55:34.226Z,100924.38
2022-10-19T11:59:51.242Z,100909.38
2022-10-19T12:04:21.352Z,100901.09
2022-10-19T12:08:35.335Z,100888.00
2022-10-19T12:12:41.680Z,100898.22
2022-10-19T12:16:50.679Z,100895.78
2022-10-19T12:20:57.223Z,100892.81
2022-10-19T12:25:02.408Z,100887.19
2022-10-19T12:29:08.377Z,100879.47
2022-10-19T12:33:21.118Z,100875.38
2022-10-19T12:37:29.402Z,100882.66
2022-10-19T12:41:37.631Z,100874.84
2022-10-19T12:45:44.412Z,100866.34
2022-10-19T12:49:51.150Z,100857.50
2022-10-19T12:54:09.417Z,100852.94
2022-10-19T12:58:22.403Z,100848.94
2022-10-19T13:02:29.498Z,100847.63
2022-10-19T13:06:36.058Z,100845.06
2022-10-19T13:10:38.731Z,100836.28
2022-10-19T13:14:44.535Z,100836.59
2022-10-19T13:19:21.181Z,100839.56
2022-10-19T13:23:42.762Z,100837.31
2022-10-19T13:27:46.414Z,100841.88
2022-10-19T13:31:49.437Z,100830.69
2022-10-19T13:36:07.769Z,100832.25
2022-10-19T13:40:23.696Z,100819.84
2022-10-19T13:44:33.775Z,100823.63
2022-10-19T13:49:15.067Z,100826.72
2022-10-19T13:53:30.499Z,100822.91
2022-10-19T13:57:54.125Z,100826.97
2022-10-19T14:02:23.676Z,100820.44
2022-10-19T14:06:32.536Z,100818.63
2022-10-19T14:10:56.262Z,100813.63
2022-10-19T14:15:00.478Z,100812.09
2022-10-19T14:19:03.174Z,100806.47
2022-10-19T14:23:24.355Z,100802.50
2022-10-19T14:27:27.121Z,100795.63
2022-10-19T14:31:36.180Z,100811.28
2022-10-19T14:35:41.207Z,100805.00
2022-10-19T14:39:43.911Z,100804.41
2022-10-19T14:43:46.621Z,100810.88
2022-10-19T14:47:59.318Z,100797.97
2022-10-19T14:52:04.880Z,100799.00
2022-10-19T14:56:11.774Z,100799.22
2022-10-19T15:00:19.277Z,100786.66
2022-10-19T15:04:26.310Z,100784.13
2022-10-19T15:08:37.537Z,100787.31
2022-10-19T15:12:43.286Z,100788.31
2022-10-19T15:16:51.974Z,100796.03
2022-10-19T15:21:13.151Z,100792.44
2022-10-19T15:25:36.805Z,100791.81
2022-10-19T15:29:40.339Z,100786.19
2022-10-19T15:33:46.641Z,100782.84
2022-10-19T15:37:51.881Z,100778.38
2022-10-19T15:41:54.617Z,100782.09
2022-10-19T15:46:01.017Z,100769.97
2022-10-19T15:50:03.956Z,100777.91
2022-10-19T15:54:08.545Z,100768.09
2022-10-19T15:58:12.334Z,100771.28
2022-10-19T16:02:15.344Z,100760.69
2022-10-19T16:06:19.327Z,100762.63
2022-10-19T16:10:26.490Z,100756.44
2022-10-19T16:14:31.962Z,100754.44
2022-10-19T16:18:38.730Z,100757.31
2022-10-19T16:22:41.360Z,100760.88
2022-10-19T16:26:45.302Z,100767.16
2022-10-19T16:30:53.043Z,100757.66
2022-10-19T16:34:55.655Z,100760.91
2022-10-19T16:39:00.934Z,100762.50
2022-10-19T16:43:05.049Z,100753.66
2022-10-19T16:47:07.676Z,100761.13
2022-10-19T16:51:25.260Z,100754.38
2022-10-19T16:55:29.791Z,100751.44
2022-10-19T16:59:33.819Z,100753.13
2022-10-19T17:03:36.679Z,100764.50
2022-10-19T17:07:39.426Z,100762.91
2022-10-19T17:11:42.139Z,100763.66
2022-10-19T17:15:46.065Z,100764.09
2022-10-19T17:19:48.777Z,100752.41
2022-10-19T17:23:53.307Z,100757.78
2022-10-19T17:27:55.897Z,100760.91
2022-10-19T17:32:00.540Z,100759.47
2022-10-19T17:36:08.804Z,100767.50
2022-10-19T17:40:12.223Z,100760.88
2022-10-19T17:44:15.221Z,100773.94
2022-10-19T17:48:19.257Z,100779.09
2022-10-19T17:52:21.875Z,100778.00
2022-10-19T17:56:25.445Z,100779.72
2022-10-19T18:00:28.063Z,100788.13
2022-10-19T18:04:32.106Z,100793.03
2022-10-19T18:08:36.874Z,100794.38
2022-10-19T18:12:39.519Z,100788.81
2022-10-19T18:16:52.572Z,100788.31
2022-10-19T18:20:56.629Z,100783.63
2022-10-19T18:24:59.318Z,100782.97
2022-10-19T18:29:09.318Z,100783.31
2022-10-19T18:33:11.975Z,100783.00
2022-10-19T18:37:15.942Z,100783.84
2022-10-19T18:41:18.799Z,100786.56
2022-10-19T18:45:21.458Z,100783.53
2022-10-19T18:49:24.919Z,100774.59
2022-10-19T18:53:28.705Z,100781.16
2022-10-19T18:57:31.987Z,100766.00
2022-10-19T19:01:34.910Z,100772.41
2022-10-19T19:05:37.591Z,100768.19
2022-10-19T19:09:42.608Z,100752.53
2022-10-19T19:13:49.242Z,100744.25
2022-10-19T19:17:55.091Z,100727.75
2022-10-19T19:21:58.115Z,100725.19
2022-10-19T19:26:03.811Z,100718.31
2022-10-19T19:30:07.202Z,100711.00
2022-10-19T19:34:10.183Z,100711.25
2022-10-19T19:38:13.520Z,100705.34
2022-10-19T19:42:18.284Z,100700.75
2022-10-19T19:46:21.051Z,100692.50
2022-10-19T19:50:23.652Z,100693.97
2022-10-19T19:54:26.320Z,100689.59
2022-10-19T19:58:30.224Z,100678.53
2022-10-19T20:02:37.121Z,100673.66
2022-10-19T20:06:41.359Z,100688.66
2022-10-19T20:10:44.464Z,100685.28
2022-10-19T20:14:48.421Z,100680.72
2022-10-19T20:18:52.959Z,100682.25
2022-10-19T20:22:55.596Z,100682.06
2022-10-19T20:26:58.232Z,100673.47
2022-10-19T20:31:03.796Z,100670.97
2022-10-19T20:35:07.738Z,100665.47
2022-10-19T20:39:10.778Z,100668.81
2022-10-19T20:43:15.171Z,100671.78
2022-10-19T20:47:19.078Z,100670.78
2022-10-19T20:51:27.464Z,100665.06
2022-10-19T20:55:33.839Z,100656.66
2022-10-19T20:59:38.440Z,100659.06
